Time;durP1;ratioP1;P1;durP2;ratioP2;P2;SDS_P1;SDS_P2;PMS_P1;PMS_P2;Temp;Humidity;BMP_temperature;BMP_pressure;BME280_temperature;BME280_humidity;BME280_pressure;Samples;Min_cycle;Max_cycle;Signal;HPM_P1;HPM_P2
2021/01/27 00:00:42;;;;;;;8.63;4.47;;;3.70;99.90;;;;;;5031231;28;20025;-69
2021/01/27 00:03:08;;;;;;;6.80;3.90;;;3.80;99.90;;;;;;5031188;28;20457;-70
2021/01/27 00:05:44;;;;;;;7.13;4.95;;;3.80;99.90;;;;;;5032101;28;20041;-70
2021/01/27 00:08:10;;;;;;;6.10;4.47;;;3.80;99.90;;;;;;5032818;28;20021;-69
2021/01/27 00:10:36;;;;;;;7.85;4.28;;;3.80;99.90;;;;;;5031951;28;20458;-69
2021/01/27 00:13:09;;;;;;;14.05;6.72;;;3.80;99.90;;;;;;5032243;28;20036;-69
2021/01/27 00:15:38;;;;;;;8.02;4.57;;;3.80;99.90;;;;;;5032411;28;20064;-70
2021/01/27 00:18:07;;;;;;;9.00;4.17;;;3.80;99.90;;;;;;5031261;28;20013;-70
2021/01/27 00:20:32;;;;;;;7.10;5.00;;;3.70;99.90;;;;;;5032463;28;20055;-70
2021/01/27 00:22:58;;;;;;;5.65;3.65;;;3.70;99.90;;;;;;5031916;28;20041;-70
2021/01/27 00:25:32;;;;;;;5.25;3.65;;;3.70;99.90;;;;;;5031848;28;20470;-69
2021/01/27 00:27:59;;;;;;;7.63;3.67;;;3.70;99.90;;;;;;5031831;28;20521;-69
2021/01/27 00:30:28;;;;;;;9.50;3.92;;;3.60;99.90;;;;;;5032176;28;20481;-70
2021/01/27 00:32:55;;;;;;;5.45;3.55;;;3.60;99.90;;;;;;5031397;28;20032;-70
2021/01/27 00:35:25;;;;;;;6.13;4.35;;;3.60;99.90;;;;;;5032238;28;20025;-69
2021/01/27 00:37:52;;;;;;;5.53;3.92;;;3.70;99.90;;;;;;5031290;28;20056;-70
2021/01/27 00:40:17;;;;;;;6.82;4.18;;;3.60;99.90;;;;;;5032035;28;20052;-69
2021/01/27 00:42:43;;;;;;;4.90;4.10;;;3.60;99.90;;;;;;5031682;28;20021;-69
2021/01/27 00:45:09;;;;;;;8.40;4.45;;;3.60;99.90;;;;;;5031103;28;20067;-70
2021/01/27 00:47:35;;;;;;;5.07;4.15;;;3.60;99.90;;;;;;5031825;28;20041;-69
2021/01/27 00:50:00;;;;;;;4.63;3.95;;;3.60;99.90;;;;;;5031271;28;20049;-69
2021/01/27 00:52:26;;;;;;;8.57;4.28;;;3.60;99.90;;;;;;5031084;28;20030;-70
2021/01/27 00:54:52;;;;;;;5.53;4.38;;;3.60;99.90;;;;;;5031465;28;20036;-70
2021/01/27 00:57:18;;;;;;;5.85;4.00;;;3.60;99.90;;;;;;5031882;28;20105;-69
2021/01/27 00:59:44;;;;;;;7.78;5.35;;;3.60;99.90;;;;;;5030750;28;20485;-69
2021/01/27 01:02:09;;;;;;;7.05;4.53;;;3.60;99.90;;;;;;5031931;28;20028;-69
2021/01/27 01:04:35;;;;;;;6.95;4.65;;;3.60;99.90;;;;;;5031888;28;20434;-68
2021/01/27 01:07:00;;;;;;;5.35;3.88;;;3.50;99.90;;;;;;5030943;28;20036;-69
2021/01/27 01:09:27;;;;;;;8.77;4.95;;;3.60;99.90;;;;;;5032008;28;20528;-69
2021/01/27 01:11:53;;;;;;;5.80;4.72;;;3.50;99.90;;;;;;5031622;28;20021;-69
2021/01/27 01:14:19;;;;;;;7.93;4.75;;;3.50;99.90;;;;;;5034260;28;20045;-70
2021/01/27 01:16:44;;;;;;;8.60;4.72;;;3.40;99.90;;;;;;5035579;28;20347;-69
2021/01/27 01:19:10;;;;;;;6.05;5.45;;;3.40;99.90;;;;;;5035494;28;20099;-70
2021/01/27 01:21:36;;;;;;;10.57;5.40;;;3.50;99.90;;;;;;5035050;28;20029;-69
2021/01/27 01:24:02;;;;;;;11.60;6.40;;;3.40;99.90;;;;;;5035275;28;20037;-70
2021/01/27 01:26:27;;;;;;;6.80;5.57;;;3.40;99.90;;;;;;5035309;28;20026;-70
2021/01/27 01:28:53;;;;;;;6.55;5.82;;;3.40;99.90;;;;;;5034584;28;20377;-70
2021/01/27 01:31:18;;;;;;;8.68;5.63;;;3.40;99.90;;;;;;5035637;28;20377;-70
2021/01/27 01:33:44;;;;;;;14.20;6.15;;;3.30;99.90;;;;;;5035193;28;20481;-69
2021/01/27 01:36:09;;;;;;;6.72;6.03;;;3.40;99.90;;;;;;5034710;28;20033;-69
2021/01/27 01:38:35;;;;;;;9.98;6.38;;;3.30;99.90;;;;;;5035275;28;20032;-69
2021/01/27 01:41:04;;;;;;;9.73;6.18;;;3.30;99.90;;;;;;5034852;28;20037;-69
2021/01/27 01:43:35;;;;;;;9.52;6.18;;;3.30;99.90;;;;;;5034962;28;20041;-69
2021/01/27 01:46:11;;;;;;;10.23;6.40;;;3.30;99.90;;;;;;5035442;28;20084;-69
2021/01/27 01:48:50;;;;;;;7.95;5.65;;;3.30;99.90;;;;;;5034636;28;20021;-69
2021/01/27 01:51:47;;;;;;;8.02;5.38;;;3.30;99.90;;;;;;5034954;28;20088;-69
2021/01/27 01:54:26;;;;;;;9.10;5.57;;;3.30;99.90;;;;;;5021938;28;20024;-69
2021/01/27 01:56:58;;;;;;;6.53;5.40;;;3.30;99.90;;;;;;5034152;28;20029;-69
2021/01/27 01:59:26;;;;;;;6.78;6.07;;;3.30;99.90;;;;;;5035102;28;20017;-69
2021/01/27 02:01:59;;;;;;;8.88;6.40;;;3.20;99.90;;;;;;5034567;28;20113;-68
2021/01/27 02:04:30;;;;;;;11.43;6.38;;;3.20;99.90;;;;;;5034101;28;20033;-69
2021/01/27 02:06:56;;;;;;;9.18;5.80;;;3.20;99.90;;;;;;5034612;28;20024;-69
2021/01/27 02:09:21;;;;;;;9.00;5.07;;;3.20;99.90;;;;;;5033893;28;20018;-69
2021/01/27 02:12:11;;;;;;;8.05;5.50;;;3.20;99.90;;;;;;5034529;28;20025;-69
2021/01/27 02:14:55;;;;;;;8.88;5.15;;;3.20;99.90;;;;;;5034481;28;20029;-69
2021/01/27 02:17:36;;;;;;;7.38;5.35;;;3.20;99.90;;;;;;5033884;28;20075;-69
2021/01/27 02:20:39;;;;;;;6.43;5.38;;;3.20;99.90;;;;;;5034397;28;20029;-69
2021/01/27 02:23:40;;;;;;;6.93;5.40;;;3.20;99.90;;;;;;5030218;28;20072;-70
2021/01/27 02:26:35;;;;;;;5.57;4.45;;;3.20;99.90;;;;;;5034384;28;20116;-69
2021/01/27 02:29:24;;;;;;;5.53;4.63;;;3.20;99.90;;;;;;5023232;28;20037;-69
2021/01/27 02:32:13;;;;;;;5.70;3.72;;;3.20;99.90;;;;;;5033155;28;20469;-69
2021/01/27 02:35:16;;;;;;;7.38;4.75;;;3.30;99.90;;;;;;5034494;28;20163;-69
2021/01/27 02:38:16;;;;;;;4.80;4.38;;;3.30;99.90;;;;;;5023415;28;20087;-69
2021/01/27 02:41:10;;;;;;;6.55;4.38;;;3.30;99.90;;;;;;5021343;28;20052;-69
2021/01/27 02:43:38;;;;;;;5.70;4.43;;;3.20;99.90;;;;;;5033971;28;20116;-69
2021/01/27 02:46:16;;;;;;;10.80;4.82;;;3.20;99.90;;;;;;5032951;28;20033;-69
2021/01/27 02:49:09;;;;;;;5.82;4.20;;;3.20;99.90;;;;;;5033294;28;20031;-69
2021/01/27 02:51:44;;;;;;;4.47;3.88;;;3.20;99.90;;;;;;5033332;28;20072;-69
2021/01/27 02:54:19;;;;;;;4.97;4.47;;;3.20;99.90;;;;;;5033872;28;20039;-69
2021/01/27 02:57:16;;;;;;;6.47;4.10;;;3.20;99.90;;;;;;5033764;28;20032;-68
2021/01/27 02:59:59;;;;;;;8.18;4.20;;;3.10;99.90;;;;;;5022361;28;20022;-69
2021/01/27 03:02:44;;;;;;;5.18;3.53;;;3.20;99.90;;;;;;5033506;28;20147;-69
2021/01/27 03:05:18;;;;;;;5.68;4.10;;;3.20;99.90;;;;;;5033880;28;20041;-69
2021/01/27 03:07:49;;;;;;;9.05;4.18;;;3.10;99.90;;;;;;5032589;28;20100;-69
2021/01/27 03:10:21;;;;;;;4.55;3.53;;;3.10;99.90;;;;;;5033772;28;20053;-69
2021/01/27 03:12:48;;;;;;;5.13;3.75;;;3.10;99.90;;;;;;5032412;28;20033;-70
2021/01/27 03:15:15;;;;;;;4.13;3.72;;;3.10;99.90;;;;;;5033351;28;20026;-70
2021/01/27 03:17:43;;;;;;;5.47;3.20;;;3.10;99.90;;;;;;5033061;28;20516;-70
2021/01/27 03:20:15;;;;;;;6.03;3.47;;;3.10;99.90;;;;;;5032892;28;20061;-70
2021/01/27 03:22:51;;;;;;;3.45;3.15;;;3.10;99.90;;;;;;5032994;28;20052;-70
2021/01/27 03:25:22;;;;;;;9.15;4.10;;;3.10;99.90;;;;;;5033239;28;20055;-70
2021/01/27 03:28:31;;;;;;;4.35;3.70;;;3.10;99.90;;;;;;5032366;28;20033;-70
2021/01/27 03:30:57;;;;;;;4.03;3.63;;;3.10;99.90;;;;;;5019442;28;20144;-70
2021/01/27 03:33:45;;;;;;;4.75;3.65;;;3.10;99.90;;;;;;5033095;28;20029;-69
2021/01/27 03:36:13;;;;;;;4.07;3.45;;;3.10;99.90;;;;;;5032406;28;20036;-69
2021/01/27 03:38:50;;;;;;;5.07;3.47;;;3.10;99.90;;;;;;5033216;28;20022;-69
2021/01/27 03:41:29;;;;;;;5.15;3.47;;;3.10;99.90;;;;;;5032412;28;20032;-69
2021/01/27 03:44:17;;;;;;;3.85;3.55;;;3.00;99.90;;;;;;5032528;28;20021;-69
2021/01/27 03:46:56;;;;;;;6.50;4.97;;;3.00;99.90;;;;;;5032650;28;20022;-69
2021/01/27 03:49:46;;;;;;;7.10;3.40;;;3.00;99.90;;;;;;5032206;28;20439;-69
2021/01/27 03:52:34;;;;;;;4.53;3.80;;;3.00;99.90;;;;;;5032579;28;20052;-69
2021/01/27 03:55:28;;;;;;;6.50;4.68;;;3.00;99.90;;;;;;5033290;28;20037;-69
2021/01/27 03:58:09;;;;;;;4.03;3.72;;;3.00;99.90;;;;;;5049697;28;20057;-69
2021/01/27 04:00:35;;;;;;;5.70;4.28;;;3.00;99.90;;;;;;5052126;28;20451;-69
2021/01/27 04:03:11;;;;;;;4.28;3.63;;;2.90;99.90;;;;;;5051327;28;20119;-70
2021/01/27 04:05:37;;;;;;;6.28;4.22;;;2.90;99.90;;;;;;5025990;28;20127;-70
2021/01/27 04:08:03;;;;;;;4.95;3.95;;;2.90;99.90;;;;;;5051918;28;20454;-70
2021/01/27 04:10:29;;;;;;;8.82;3.80;;;2.90;99.90;;;;;;5051279;28;20017;-70
2021/01/27 04:12:54;;;;;;;4.40;4.00;;;2.90;99.90;;;;;;5041386;28;20024;-70
2021/01/27 04:15:20;;;;;;;4.65;4.25;;;2.90;99.90;;;;;;5048452;28;20083;-70
2021/01/27 04:17:45;;;;;;;3.72;3.42;;;2.90;99.90;;;;;;5051172;28;20445;-69
2021/01/27 04:20:11;;;;;;;5.25;4.47;;;2.90;99.90;;;;;;5051977;28;20020;-70
2021/01/27 04:22:37;;;;;;;3.95;3.47;;;2.90;99.90;;;;;;5052122;28;20029;-70
2021/01/27 04:25:03;;;;;;;4.53;4.13;;;2.90;99.90;;;;;;5050893;28;20056;-70
2021/01/27 04:27:29;;;;;;;5.93;4.07;;;2.90;99.90;;;;;;5051861;28;20549;-70
2021/01/27 04:29:54;;;;;;;4.38;4.03;;;2.90;99.90;;;;;;5040896;28;20025;-70
2021/01/27 04:32:20;;;;;;;4.47;4.15;;;2.90;99.90;;;;;;5047758;28;20028;-69
2021/01/27 04:34:46;;;;;;;4.78;4.38;;;3.00;99.90;;;;;;5052531;28;20052;-69
2021/01/27 04:37:12;;;;;;;5.47;4.97;;;2.90;99.90;;;;;;5051455;28;20059;-69
2021/01/27 04:39:37;;;;;;;4.90;4.50;;;2.90;99.90;;;;;;5051739;28;20524;-69
2021/01/27 04:42:04;;;;;;;5.05;4.63;;;3.00;99.90;;;;;;5051741;28;20039;-69
2021/01/27 04:44:29;;;;;;;5.20;4.80;;;3.00;99.90;;;;;;5050891;28;20123;-68
2021/01/27 04:47:16;;;;;;;4.72;4.32;;;2.90;99.90;;;;;;5051755;28;20114;-69
2021/01/27 04:49:50;;;;;;;6.47;5.22;;;3.00;99.90;;;;;;5043996;28;20136;-69
2021/01/27 04:52:41;;;;;;;6.97;4.95;;;3.00;99.90;;;;;;5057710;28;20025;-69
2021/01/27 04:55:09;;;;;;;;;;;3.00;99.90;;;;;;5053283;28;20063;-69
2021/01/27 04:57:44;;;;;;;4.75;4.35;;;3.00;99.90;;;;;;5058648;28;19904;-69
2021/01/27 05:00:43;;;;;;;5.55;5.05;;;3.00;99.90;;;;;;5057809;28;20384;-69
2021/01/27 05:03:38;;;;;;;5.15;4.75;;;3.00;99.90;;;;;;5054646;28;20445;-69
2021/01/27 05:06:11;;;;;;;5.47;5.07;;;3.00;99.90;;;;;;5049404;28;20400;-69
2021/01/27 05:08:42;;;;;;;6.32;4.57;;;2.90;99.90;;;;;;5057539;28;20124;-69
2021/01/27 05:11:12;;;;;;;5.00;4.63;;;3.00;99.90;;;;;;5057553;28;20418;-69
2021/01/27 05:13:41;;;;;;;5.15;4.68;;;3.00;99.90;;;;;;5057582;28;20036;-69
2021/01/27 05:16:29;;;;;;;7.20;5.50;;;3.00;99.90;;;;;;5058195;28;20029;-68
2021/01/27 05:19:05;;;;;;;5.18;4.78;;;3.00;99.90;;;;;;5058267;28;20086;-70
2021/01/27 05:21:41;;;;;;;5.55;5.07;;;3.00;99.90;;;;;;5058205;28;20451;-68
2021/01/27 05:24:07;;;;;;;7.78;5.88;;;3.00;99.90;;;;;;5032377;28;20037;-69
2021/01/27 05:26:44;;;;;;;6.20;5.32;;;3.10;99.90;;;;;;5057609;28;20443;-68
2021/01/27 05:29:22;;;;;;;5.55;4.70;;;3.00;99.90;;;;;;5031711;28;20531;-70
2021/01/27 05:31:59;;;;;;;5.22;4.82;;;3.00;99.90;;;;;;5057959;28;20081;-69
2021/01/27 05:34:31;;;;;;;5.07;4.60;;;3.10;99.90;;;;;;5057365;28;20025;-69
2021/01/27 05:36:57;;;;;;;4.93;4.63;;;3.10;99.90;;;;;;5057809;28;20028;-69
2021/01/27 05:39:28;;;;;;;5.07;4.25;;;3.10;99.90;;;;;;5058492;28;20021;-69
2021/01/27 05:42:04;;;;;;;;;;;3.10;99.90;;;;;;5057497;28;20508;-69
2021/01/27 05:44:29;;;;;;;4.68;4.28;;;3.00;99.90;;;;;;5032038;28;19913;-70
2021/01/27 05:46:55;;;;;;;4.85;4.45;;;3.10;99.90;;;;;;5057671;28;20028;-70
2021/01/27 05:49:29;;;;;;;8.18;4.60;;;3.10;99.90;;;;;;5056714;28;20056;-69
2021/01/27 05:52:15;;;;;;;5.00;4.60;;;3.10;99.90;;;;;;5057280;28;20048;-69
2021/01/27 05:54:40;;;;;;;6.15;5.65;;;3.10;99.90;;;;;;5057028;28;20045;-69
2021/01/27 05:57:19;;;;;;;5.40;5.00;;;3.00;99.90;;;;;;5057713;28;20085;-69
2021/01/27 05:59:47;;;;;;;6.95;5.20;;;3.00;99.90;;;;;;5054744;28;20075;-69
2021/01/27 06:02:14;;;;;;;5.80;5.30;;;3.10;99.90;;;;;;5054009;28;20029;-69
2021/01/27 06:04:40;;;;;;;6.55;5.95;;;3.00;99.90;;;;;;5040648;28;20103;-69
2021/01/27 06:07:23;;;;;;;6.18;5.63;;;3.00;99.90;;;;;;5054931;28;20168;-69
2021/01/27 06:09:52;;;;;;;5.95;5.45;;;3.10;99.90;;;;;;5053751;28;20033;-69
2021/01/27 06:12:18;;;;;;;6.20;5.70;;;3.00;99.90;;;;;;5054685;28;20025;-68
2021/01/27 06:14:44;;;;;;;6.32;5.82;;;3.00;99.90;;;;;;5054629;28;20071;-68
2021/01/27 06:17:24;;;;;;;5.93;5.40;;;3.10;99.90;;;;;;5049980;28;20445;-69
2021/01/27 06:20:00;;;;;;;5.13;4.72;;;3.00;99.90;;;;;;5048730;28;20108;-68
2021/01/27 06:22:45;;;;;;;5.35;4.90;;;3.10;99.90;;;;;;5042255;28;20025;-70
2021/01/27 06:25:31;;;;;;;4.78;4.32;;;3.10;99.90;;;;;;5051764;28;20083;-70
2021/01/27 06:28:27;;;;;;;5.15;4.72;;;3.10;99.90;;;;;;5048371;28;20029;-68
2021/01/27 06:31:21;;;;;;;4.88;4.38;;;3.10;99.90;;;;;;5050481;28;20025;-68
2021/01/27 06:34:17;;;;;;;5.80;5.30;;;3.10;99.90;;;;;;5050033;28;20033;-68
2021/01/27 06:36:58;;;;;;;5.35;4.95;;;3.10;99.90;;;;;;5047724;28;20100;-68
2021/01/27 06:39:41;;;;;;;5.40;5.00;;;3.10;99.90;;;;;;5044457;28;20083;-68
2021/01/27 06:42:37;;;;;;;5.20;4.80;;;3.10;99.90;;;;;;5051907;28;20072;-68
2021/01/27 06:45:24;;;;;;;5.63;5.15;;;3.10;99.90;;;;;;5043246;28;20397;-68
2021/01/27 06:47:52;;;;;;;5.78;5.38;;;3.20;99.90;;;;;;5049274;28;20100;-68
2021/01/27 06:50:34;;;;;;;5.38;4.97;;;3.10;99.90;;;;;;5050016;28;20068;-68
2021/01/27 06:53:12;;;;;;;5.45;4.97;;;3.10;99.90;;;;;;5052178;28;20031;-68
2021/01/27 06:55:46;;;;;;;7.63;5.97;;;3.20;99.90;;;;;;5050701;28;20166;-68
2021/01/27 06:58:30;;;;;;;7.88;6.75;;;3.20;99.90;;;;;;5042419;28;20404;-70
2021/01/27 07:01:07;;;;;;;6.60;6.10;;;3.20;99.90;;;;;;5051214;28;20029;-68
2021/01/27 07:03:59;;;;;;;5.85;5.35;;;3.20;99.90;;;;;;5048686;28;20028;-70
2021/01/27 07:06:48;;;;;;;5.40;4.93;;;3.20;99.90;;;;;;5048635;28;20096;-70
2021/01/27 07:09:40;;;;;;;5.20;4.70;;;3.30;99.90;;;;;;5048761;28;20053;-68
2021/01/27 07:12:26;;;;;;;5.63;5.13;;;3.30;99.90;;;;;;5048643;28;20075;-68
2021/01/27 07:15:15;;;;;;;5.30;4.90;;;3.30;99.90;;;;;;5050175;28;20084;-68
2021/01/27 07:17:50;;;;;;;5.38;4.95;;;3.30;99.90;;;;;;5050706;28;20029;-68
2021/01/27 07:20:21;;;;;;;4.97;4.57;;;3.30;99.90;;;;;;5044392;28;20022;-68
2021/01/27 07:22:49;;;;;;;6.30;5.80;;;3.30;99.90;;;;;;5050027;28;20473;-69
2021/01/27 07:25:28;;;;;;;7.03;6.43;;;3.30;99.90;;;;;;5042479;28;20536;-68
2021/01/27 07:28:03;;;;;;;6.60;6.10;;;3.40;99.90;;;;;;5049294;28;20063;-69
2021/01/27 07:30:41;;;;;;;7.72;7.03;;;3.40;99.90;;;;;;5049581;28;20379;-69
2021/01/27 07:33:14;;;;;;;6.72;6.03;;;3.40;99.90;;;;;;5050497;28;20077;-68
2021/01/27 07:35:50;;;;;;;6.13;5.53;;;3.40;99.90;;;;;;5051164;28;20033;-69
2021/01/27 07:38:26;;;;;;;5.15;4.78;;;3.30;99.90;;;;;;5048351;28;20028;-68
2021/01/27 07:41:03;;;;;;;5.88;4.82;;;3.40;99.90;;;;;;5042921;28;20086;-69
2021/01/27 07:43:54;;;;;;;5.88;5.03;;;3.40;99.90;;;;;;5047730;28;20032;-69
2021/01/27 07:46:33;;;;;;;5.30;4.80;;;3.40;99.90;;;;;;5049096;28;20416;-69
2021/01/27 07:49:04;;;;;;;5.57;5.07;;;3.40;99.90;;;;;;5048047;28;20041;-68
2021/01/27 07:51:36;;;;;;;5.63;5.05;;;3.40;99.90;;;;;;5046843;28;20045;-69
2021/01/27 07:54:09;;;;;;;5.78;5.28;;;3.40;99.90;;;;;;5050101;28;20166;-70
2021/01/27 07:56:57;;;;;;;6.63;5.93;;;3.40;99.90;;;;;;5046567;28;20489;-70
2021/01/27 07:59:30;;;;;;;7.70;7.00;;;3.50;99.90;;;;;;5047423;28;20048;-69
2021/01/27 08:01:59;;;;;;;9.05;7.32;;;3.50;99.90;;;;;;5049728;28;20017;-69
2021/01/27 08:04:40;;;;;;;7.20;6.50;;;3.50;99.90;;;;;;5046568;28;20046;-69
2021/01/27 08:07:22;;;;;;;9.82;8.32;;;3.50;99.90;;;;;;5047896;28;20028;-69
2021/01/27 08:09:49;;;;;;;8.52;7.68;;;3.50;99.90;;;;;;5048399;28;20021;-69
2021/01/27 08:12:27;;;;;;;10.73;9.10;;;3.50;99.90;;;;;;5032405;28;20481;-69
2021/01/27 08:15:08;;;;;;;11.20;9.35;;;3.50;99.90;;;;;;5032006;28;20029;-69
2021/01/27 08:18:02;;;;;;;11.00;9.18;;;3.50;99.90;;;;;;5021784;28;20379;-68
2021/01/27 08:20:37;;;;;;;11.77;10.15;;;3.50;99.90;;;;;;5032325;28;20362;-70
2021/01/27 08:23:21;;;;;;;12.13;9.77;;;3.60;99.90;;;;;;5030763;28;20025;-68
2021/01/27 08:26:00;;;;;;;11.55;10.38;;;3.50;99.90;;;;;;5031986;28;20117;-68
2021/01/27 08:28:38;;;;;;;13.35;11.13;;;3.60;99.90;;;;;;5032480;28;20418;-67
2021/01/27 08:31:09;;;;;;;12.35;11.05;;;3.60;99.90;;;;;;5019691;28;20405;-69
2021/01/27 08:33:47;;;;;;;13.27;11.25;;;3.70;99.90;;;;;;5032144;28;20465;-69
2021/01/27 08:36:15;;;;;;;12.57;10.90;;;3.60;99.90;;;;;;5020612;28;20021;-68
2021/01/27 08:39:07;;;;;;;13.93;11.48;;;3.70;99.90;;;;;;5031817;28;20014;-68
2021/01/27 08:41:58;;;;;;;13.73;11.77;;;3.70;99.90;;;;;;5023078;28;20485;-68
2021/01/27 08:44:32;;;;;;;14.77;11.25;;;3.80;99.90;;;;;;5031056;28;20039;-68
2021/01/27 08:47:23;;;;;;;13.52;11.93;;;3.80;99.90;;;;;;5032032;28;20048;-68
2021/01/27 08:49:54;;;;;;;12.90;11.27;;;3.80;99.90;;;;;;5041556;28;20080;-69
2021/01/27 08:52:20;;;;;;;14.73;11.65;;;3.80;99.90;;;;;;5051288;28;20044;-69
2021/01/27 08:54:51;;;;;;;16.50;12.85;;;3.80;99.90;;;;;;5051537;28;20020;-69
2021/01/27 08:57:32;;;;;;;15.32;11.38;;;3.80;99.90;;;;;;5046933;28;20457;-69
2021/01/27 09:00:13;;;;;;;14.68;11.55;;;3.80;99.90;;;;;;5032628;28;20055;-69
2021/01/27 09:02:59;;;;;;;16.38;12.55;;;3.90;99.90;;;;;;5031992;28;20104;-69
2021/01/27 09:05:28;;;;;;;16.63;13.02;;;3.90;99.90;;;;;;5026098;28;20506;-68
2021/01/27 09:08:09;;;;;;;17.88;12.85;;;3.90;99.90;;;;;;5051555;28;20032;-68
2021/01/27 09:10:43;;;;;;;17.13;12.10;;;3.90;99.90;;;;;;5027697;28;20029;-70
2021/01/27 09:13:27;;;;;;;17.55;12.95;;;3.90;99.90;;;;;;5051060;28;20108;-69
2021/01/27 09:15:57;;;;;;;16.40;13.23;;;4.00;99.90;;;;;;5036233;28;20137;-69
2021/01/27 09:18:23;;;;;;;18.27;12.60;;;4.00;99.90;;;;;;5035303;28;20021;-69
2021/01/27 09:20:49;;;;;;;17.58;12.88;;;4.00;99.90;;;;;;5043303;28;20032;-69
2021/01/27 09:23:19;;;;;;;15.20;11.85;;;4.10;99.90;;;;;;5050658;28;20061;-69
2021/01/27 09:25:47;;;;;;;19.08;12.38;;;4.10;99.90;;;;;;5037392;28;20450;-69
2021/01/27 09:28:21;;;;;;;15.00;12.02;;;4.10;99.90;;;;;;5031896;28;20033;-69
2021/01/27 09:30:47;;;;;;;16.60;12.52;;;4.10;99.90;;;;;;5023825;28;20021;-68
2021/01/27 09:33:28;;;;;;;15.85;12.43;;;4.10;99.90;;;;;;5040831;28;20025;-69
2021/01/27 09:36:10;;;;;;;17.25;12.85;;;4.20;99.90;;;;;;5026591;28;20071;-69
2021/01/27 09:38:36;;;;;;;16.42;12.38;;;4.20;99.90;;;;;;5055073;28;20488;-69
2021/01/27 09:41:07;;;;;;;19.92;12.60;;;4.20;99.90;;;;;;5054199;28;20025;-69
2021/01/27 09:43:36;;;;;;;17.80;13.48;;;4.20;99.90;;;;;;5055448;28;20036;-69
2021/01/27 09:46:25;;;;;;;16.98;13.35;;;4.20;99.90;;;;;;5044787;28;20082;-69
2021/01/27 09:48:56;;;;;;;19.63;14.38;;;4.20;99.90;;;;;;5055061;28;20503;-69
2021/01/27 09:51:23;;;;;;;20.65;14.73;;;4.30;99.90;;;;;;5055210;28;20542;-69
2021/01/27 09:53:53;;;;;;;17.75;13.35;;;4.30;99.90;;;;;;5054168;28;20154;-69
2021/01/27 09:56:19;;;;;;;18.40;13.75;;;4.30;99.90;;;;;;5054370;28;20028;-69
2021/01/27 09:58:45;;;;;;;20.42;13.85;;;4.30;99.90;;;;;;5054295;28;20033;-69
2021/01/27 10:01:18;;;;;;;23.27;13.90;;;4.30;99.90;;;;;;5035589;28;20473;-69
2021/01/27 10:03:46;;;;;;;17.67;13.32;;;4.30;99.90;;;;;;5035763;28;20481;-69
2021/01/27 10:06:35;;;;;;;18.63;13.32;;;4.30;99.90;;;;;;5048508;28;20044;-69
2021/01/27 10:09:06;;;;;;;16.83;14.32;;;4.40;99.90;;;;;;5031799;28;20043;-69
2021/01/27 10:11:35;;;;;;;19.42;13.50;;;4.40;99.90;;;;;;5054344;28;20021;-69
2021/01/27 10:14:08;;;;;;;22.02;15.07;;;4.50;99.90;;;;;;5054355;28;20110;-69
2021/01/27 10:16:56;;;;;;;19.13;13.85;;;4.50;99.90;;;;;;5054186;28;20032;-69
2021/01/27 10:19:40;;;;;;;17.23;13.38;;;4.50;99.90;;;;;;5054772;28;20124;-69
2021/01/27 10:22:07;;;;;;;25.15;15.07;;;4.60;99.90;;;;;;5046683;28;20017;-69
2021/01/27 10:24:42;;;;;;;20.95;14.48;;;4.60;99.90;;;;;;5054510;28;20097;-70
2021/01/27 10:27:08;;;;;;;25.98;14.40;;;4.50;99.90;;;;;;5054528;28;20029;-70
2021/01/27 10:29:36;;;;;;;22.85;15.65;;;4.60;99.90;;;;;;5053978;28;20377;-69
2021/01/27 10:32:24;;;;;;;24.20;16.05;;;4.60;99.90;;;;;;5053605;28;20029;-70
2021/01/27 10:34:51;;;;;;;27.75;16.52;;;4.60;99.90;;;;;;5053992;28;20033;-70
2021/01/27 10:37:33;;;;;;;23.05;15.68;;;4.70;99.90;;;;;;5053903;28;20491;-71
2021/01/27 10:40:10;;;;;;;24.25;16.63;;;4.70;99.90;;;;;;5054012;28;20036;-68
2021/01/27 10:42:39;;;;;;;24.50;16.83;;;4.80;99.90;;;;;;5053751;28;20029;-69
2021/01/27 10:45:16;;;;;;;23.65;16.65;;;4.80;99.90;;;;;;5053462;28;20037;-69
2021/01/27 10:47:44;;;;;;;24.25;16.80;;;4.80;99.90;;;;;;5044010;28;20074;-70
2021/01/27 10:50:10;;;;;;;29.38;16.65;;;4.90;99.90;;;;;;5030575;28;20049;-68
2021/01/27 10:52:36;;;;;;;26.45;17.13;;;4.90;99.90;;;;;;5033888;28;20144;-68
2021/01/27 10:55:07;;;;;;;27.70;17.25;;;4.90;99.90;;;;;;5033530;28;20034;-69
2021/01/27 10:57:32;;;;;;;26.45;17.50;;;5.00;99.90;;;;;;5022815;28;20072;-68
2021/01/27 10:59:58;;;;;;;27.38;17.17;;;5.00;99.90;;;;;;5033353;28;20470;-69
2021/01/27 11:02:23;;;;;;;28.23;17.48;;;5.10;99.90;;;;;;5033863;28;20022;-69
2021/01/27 11:04:49;;;;;;;29.90;18.10;;;5.20;99.90;;;;;;5034587;28;20033;-69
2021/01/27 11:07:15;;;;;;;28.02;18.35;;;5.20;99.90;;;;;;5045490;28;20030;-68
2021/01/27 11:09:41;;;;;;;33.75;18.83;;;5.30;99.90;;;;;;5048949;28;20453;-68
2021/01/27 11:12:07;;;;;;;29.63;17.70;;;5.40;99.90;;;;;;5042111;28;20025;-69
2021/01/27 11:14:33;;;;;;;31.77;18.30;;;5.40;99.90;;;;;;5048525;28;20112;-69
2021/01/27 11:17:01;;;;;;;35.65;18.85;;;5.40;99.90;;;;;;5044194;28;20108;-69
2021/01/27 11:19:26;;;;;;;36.15;19.30;;;5.50;99.90;;;;;;5051805;28;20028;-69
2021/01/27 11:21:52;;;;;;;29.83;19.42;;;5.50;99.90;;;;;;5038448;28;20021;-69
2021/01/27 11:24:17;;;;;;;30.60;19.50;;;5.50;99.90;;;;;;5051454;28;20072;-69
2021/01/27 11:26:43;;;;;;;29.10;19.65;;;5.50;99.90;;;;;;5049974;28;20148;-69
2021/01/27 11:29:09;;;;;;;31.02;19.88;;;5.50;99.90;;;;;;5047175;28;20484;-70
2021/01/27 11:31:35;;;;;;;33.45;18.95;;;5.50;99.90;;;;;;5052399;28;20021;-69
2021/01/27 11:34:00;;;;;;;28.55;19.38;;;5.50;99.90;;;;;;5049986;28;20066;-68
2021/01/27 11:36:26;;;;;;;30.08;19.13;;;5.50;99.90;;;;;;5040297;28;20021;-68
2021/01/27 11:38:52;;;;;;;35.13;20.63;;;5.50;99.90;;;;;;5049541;28;20021;-68
2021/01/27 11:41:20;;;;;;;38.80;21.13;;;5.60;99.90;;;;;;5048088;28;20483;-68
2021/01/27 11:43:45;;;;;;;35.50;21.95;;;5.60;99.90;;;;;;5048875;28;20124;-69
2021/01/27 11:46:17;;;;;;;36.33;21.05;;;5.60;99.90;;;;;;5050093;28;20096;-69
2021/01/27 11:48:43;;;;;;;39.22;21.40;;;5.60;99.90;;;;;;5047032;28;20025;-70
2021/01/27 11:51:10;;;;;;;35.15;21.27;;;5.60;99.90;;;;;;5049107;28;20512;-68
2021/01/27 11:53:37;;;;;;;46.25;21.83;;;5.70;99.90;;;;;;5049641;28;20033;-68
2021/01/27 11:56:02;;;;;;;37.15;21.70;;;5.70;99.90;;;;;;5047024;28;20025;-70
2021/01/27 11:58:30;;;;;;;43.95;20.80;;;5.80;99.90;;;;;;5045926;28;20074;-68
2021/01/27 12:00:56;;;;;;;39.40;21.10;;;5.80;99.90;;;;;;5048388;28;20025;-68
2021/01/27 12:03:22;;;;;;;37.85;20.77;;;5.80;99.90;;;;;;5049326;28;20051;-69
2021/01/27 12:05:47;;;;;;;40.22;21.10;;;5.80;99.90;;;;;;5048450;28;20473;-68
2021/01/27 12:08:15;;;;;;;35.22;20.80;;;5.80;99.90;;;;;;5045769;28;20013;-68
2021/01/27 12:10:41;;;;;;;37.67;21.10;;;5.90;99.90;;;;;;5044556;28;20138;-69
2021/01/27 12:13:07;;;;;;;39.40;21.40;;;5.90;99.90;;;;;;5047577;28;20044;-69
2021/01/27 12:15:32;;;;;;;34.65;21.73;;;5.90;99.90;;;;;;5045578;28;20017;-69
2021/01/27 12:17:58;;;;;;;37.88;21.83;;;6.00;99.90;;;;;;5048561;28;20028;-69
2021/01/27 12:20:24;;;;;;;38.30;21.08;;;6.10;99.90;;;;;;5050511;28;20013;-69
2021/01/27 12:22:50;;;;;;;37.47;22.02;;;6.10;99.90;;;;;;5050618;28;20210;-70
2021/01/27 12:25:16;;;;;;;39.80;20.90;;;6.20;99.90;;;;;;5048988;28;20098;-68
2021/01/27 12:27:42;;;;;;;35.28;20.65;;;6.20;99.90;;;;;;5044822;28;20031;-68
2021/01/27 12:30:09;;;;;;;36.10;19.50;;;6.30;99.90;;;;;;5046084;28;20021;-68
2021/01/27 12:32:35;;;;;;;38.40;20.75;;;6.30;99.90;;;;;;5048649;28;20477;-68
2021/01/27 12:35:01;;;;;;;36.88;20.52;;;6.30;99.90;;;;;;5048697;28;20020;-68
2021/01/27 12:37:26;;;;;;;35.83;20.35;;;6.40;99.90;;;;;;5049347;28;20024;-69
2021/01/27 12:39:54;;;;;;;38.88;21.75;;;6.40;99.90;;;;;;5045456;28;20029;-69
2021/01/27 12:42:20;;;;;;;38.08;20.08;;;6.40;99.90;;;;;;5047791;28;20108;-69
2021/01/27 12:44:46;;;;;;;34.50;20.27;;;6.50;99.90;;;;;;5047143;28;20119;-68
2021/01/27 12:47:12;;;;;;;38.13;18.73;;;6.50;99.90;;;;;;5049651;28;20024;-69
2021/01/27 12:49:39;;;;;;;40.03;19.52;;;6.50;99.90;;;;;;5047534;28;20048;-69
2021/01/27 12:52:05;;;;;;;35.85;19.10;;;6.60;99.90;;;;;;5049965;28;20021;-68
2021/01/27 12:54:31;;;;;;;34.00;19.42;;;6.50;99.90;;;;;;5049954;28;20424;-68
2021/01/27 12:56:57;;;;;;;31.92;18.02;;;6.50;99.90;;;;;;5044548;28;20009;-69
2021/01/27 12:59:22;;;;;;;37.60;19.50;;;6.60;99.90;;;;;;5047566;28;20025;-69
2021/01/27 13:01:48;;;;;;;31.95;19.25;;;6.60;99.90;;;;;;5047385;28;20017;-68
2021/01/27 13:04:13;;;;;;;31.23;17.60;;;6.60;99.90;;;;;;5048705;28;20040;-68
2021/01/27 13:06:39;;;;;;;31.80;18.65;;;6.60;99.90;;;;;;5050283;28;20017;-68
2021/01/27 13:09:05;;;;;;;36.47;19.85;;;6.60;99.90;;;;;;5045366;28;20049;-69
2021/01/27 13:11:30;;;;;;;36.15;19.45;;;6.60;99.90;;;;;;5050802;28;20075;-68
2021/01/27 13:13:56;;;;;;;39.22;19.23;;;6.70;99.90;;;;;;5052551;28;20017;-68
2021/01/27 13:16:21;;;;;;;34.72;19.27;;;6.70;99.90;;;;;;5053993;28;20108;-67
2021/01/27 13:18:48;;;;;;;37.28;18.20;;;6.70;99.90;;;;;;5051955;28;20023;-68
2021/01/27 13:21:13;;;;;;;31.30;19.52;;;6.70;99.90;;;;;;5054634;28;20032;-69